Johnsburg, Indiana
Current Conditions -  °F | °C
As of 7:55 AM on Monday 24 Nov 2014 (Local Time) from KHNB Reporting Station
Overcast Overcast  
Wind Chill: 38°   Ceiling: 1900
Heat Index: 46°   Visibility: 10mi
Dew Point: 41°   Wind: 23mph
Humidity: 81%   Direction: 260°W
Pressure: 29.5"   Gusts: 36mph
Location:  38.3038°N, 86.9615°W
Report Text: KHNB 241355Z AUTO 26020G31KT 10SM BKN019 BKN031 OVC039 08/05 A2950 RMK AO1
Loading
Personal Weather Stations






























Interactive Weather Map New forecast layout! Learn more

10-Day Weather Forecast

Advertisements
Track Severe Weather on mobile